sensor_id;sensor_type;location;lat;lon;timestamp;P1;durP1;ratioP1;P2;durP2;ratioP2
18685;SDS011;9473;52.342;13.110;2023-02-20T00:01:04;4.97;;;2.20;;
18685;SDS011;9473;52.342;13.110;2023-02-20T00:03:31;6.93;;;1.95;;
18685;SDS011;9473;52.342;13.110;2023-02-20T00:05:58;5.10;;;2.08;;
18685;SDS011;9473;52.342;13.110;2023-02-20T00:08:24;7.22;;;2.05;;
18685;SDS011;9473;52.342;13.110;2023-02-20T00:10:51;7.10;;;2.10;;
18685;SDS011;9473;52.342;13.110;2023-02-20T00:13:20;3.58;;;2.10;;
18685;SDS011;9473;52.342;13.110;2023-02-20T00:15:47;7.47;;;2.38;;
18685;SDS011;9473;52.342;13.110;2023-02-20T00:18:14;4.88;;;2.20;;
18685;SDS011;9473;52.342;13.110;2023-02-20T00:20:41;5.55;;;2.50;;
18685;SDS011;9473;52.342;13.110;2023-02-20T00:23:08;6.50;;;2.22;;
18685;SDS011;9473;52.342;13.110;2023-02-20T00:25:34;7.60;;;2.65;;
18685;SDS011;9473;52.342;13.110;2023-02-20T00:28:02;7.10;;;2.30;;
18685;SDS011;9473;52.342;13.110;2023-02-20T00:30:30;11.93;;;3.00;;
18685;SDS011;9473;52.342;13.110;2023-02-20T00:32:57;10.65;;;2.53;;
18685;SDS011;9473;52.342;13.110;2023-02-20T00:35:24;5.15;;;2.40;;
18685;SDS011;9473;52.342;13.110;2023-02-20T00:37:52;5.55;;;2.75;;
18685;SDS011;9473;52.342;13.110;2023-02-20T00:40:20;5.47;;;2.47;;
18685;SDS011;9473;52.342;13.110;2023-02-20T00:42:47;4.15;;;2.13;;
18685;SDS011;9473;52.342;13.110;2023-02-20T00:45:14;6.45;;;2.55;;
18685;SDS011;9473;52.342;13.110;2023-02-20T00:47:43;5.57;;;2.40;;
18685;SDS011;9473;52.342;13.110;2023-02-20T00:50:11;7.65;;;2.55;;
18685;SDS011;9473;52.342;13.110;2023-02-20T00:52:39;8.10;;;2.58;;
18685;SDS011;9473;52.342;13.110;2023-02-20T00:55:06;8.02;;;3.08;;
18685;SDS011;9473;52.342;13.110;2023-02-20T00:57:33;6.82;;;2.78;;
18685;SDS011;9473;52.342;13.110;2023-02-20T01:00:00;6.18;;;2.38;;
18685;SDS011;9473;52.342;13.110;2023-02-20T01:02:27;8.02;;;2.70;;
18685;SDS011;9473;52.342;13.110;2023-02-20T01:04:55;5.90;;;2.53;;
18685;SDS011;9473;52.342;13.110;2023-02-20T01:07:22;4.72;;;2.40;;
18685;SDS011;9473;52.342;13.110;2023-02-20T01:09:49;5.63;;;2.90;;
18685;SDS011;9473;52.342;13.110;2023-02-20T01:12:16;6.72;;;2.80;;
18685;SDS011;9473;52.342;13.110;2023-02-20T01:14:43;8.10;;;2.80;;
18685;SDS011;9473;52.342;13.110;2023-02-20T01:17:11;6.18;;;2.70;;
18685;SDS011;9473;52.342;13.110;2023-02-20T01:19:38;6.80;;;2.60;;
18685;SDS011;9473;52.342;13.110;2023-02-20T01:22:08;6.30;;;2.55;;
18685;SDS011;9473;52.342;13.110;2023-02-20T01:24:35;6.53;;;2.22;;
18685;SDS011;9473;52.342;13.110;2023-02-20T01:27:02;6.53;;;2.88;;
18685;SDS011;9473;52.342;13.110;2023-02-20T01:29:29;6.72;;;3.10;;
18685;SDS011;9473;52.342;13.110;2023-02-20T01:31:55;8.60;;;3.17;;
18685;SDS011;9473;52.342;13.110;2023-02-20T01:34:22;9.35;;;2.80;;
18685;SDS011;9473;52.342;13.110;2023-02-20T01:36:50;9.88;;;2.90;;
18685;SDS011;9473;52.342;13.110;2023-02-20T01:39:19;4.53;;;2.67;;
18685;SDS011;9473;52.342;13.110;2023-02-20T01:41:46;5.57;;;2.70;;
18685;SDS011;9473;52.342;13.110;2023-02-20T01:44:18;5.88;;;2.45;;
18685;SDS011;9473;52.342;13.110;2023-02-20T01:46:51;5.78;;;2.83;;
18685;SDS011;9473;52.342;13.110;2023-02-20T01:49:19;5.13;;;2.40;;
18685;SDS011;9473;52.342;13.110;2023-02-20T01:51:48;7.47;;;3.10;;
18685;SDS011;9473;52.342;13.110;2023-02-20T01:54:17;6.68;;;2.78;;
18685;SDS011;9473;52.342;13.110;2023-02-20T01:56:48;6.57;;;2.78;;
18685;SDS011;9473;52.342;13.110;2023-02-20T01:59:15;6.70;;;2.63;;
18685;SDS011;9473;52.342;13.110;2023-02-20T02:01:42;5.68;;;2.97;;
18685;SDS011;9473;52.342;13.110;2023-02-20T02:04:10;7.38;;;3.00;;
18685;SDS011;9473;52.342;13.110;2023-02-20T02:06:39;6.50;;;2.63;;
18685;SDS011;9473;52.342;13.110;2023-02-20T02:09:07;8.30;;;3.25;;
18685;SDS011;9473;52.342;13.110;2023-02-20T02:11:38;6.18;;;3.10;;
18685;SDS011;9473;52.342;13.110;2023-02-20T02:14:07;7.63;;;2.70;;
18685;SDS011;9473;52.342;13.110;2023-02-20T02:16:35;12.23;;;3.67;;
18685;SDS011;9473;52.342;13.110;2023-02-20T02:19:06;6.15;;;3.15;;
18685;SDS011;9473;52.342;13.110;2023-02-20T02:27:40;5.90;;;2.83;;
18685;SDS011;9473;52.342;13.110;2023-02-20T02:30:27;10.02;;;3.00;;
18685;SDS011;9473;52.342;13.110;2023-02-20T02:38:30;6.47;;;2.95;;
18685;SDS011;9473;52.342;13.110;2023-02-20T02:41:00;5.30;;;2.97;;
18685;SDS011;9473;52.342;13.110;2023-02-20T02:43:34;8.65;;;3.53;;
18685;SDS011;9473;52.342;13.110;2023-02-20T02:46:03;8.77;;;3.33;;
18685;SDS011;9473;52.342;13.110;2023-02-20T02:48:33;7.95;;;2.92;;
18685;SDS011;9473;52.342;13.110;2023-02-20T02:51:02;6.93;;;3.40;;
18685;SDS011;9473;52.342;13.110;2023-02-20T02:53:32;6.75;;;2.85;;
18685;SDS011;9473;52.342;13.110;2023-02-20T02:55:59;6.55;;;3.13;;
18685;SDS011;9473;52.342;13.110;2023-02-20T02:58:45;7.10;;;3.03;;
18685;SDS011;9473;52.342;13.110;2023-02-20T03:01:12;5.70;;;2.67;;
18685;SDS011;9473;52.342;13.110;2023-02-20T03:03:39;7.35;;;2.85;;
18685;SDS011;9473;52.342;13.110;2023-02-20T03:06:10;4.78;;;2.58;;
18685;SDS011;9473;52.342;13.110;2023-02-20T03:08:40;7.93;;;3.10;;
18685;SDS011;9473;52.342;13.110;2023-02-20T03:11:08;7.10;;;3.50;;
18685;SDS011;9473;52.342;13.110;2023-02-20T03:13:38;5.25;;;2.40;;
18685;SDS011;9473;52.342;13.110;2023-02-20T03:16:25;5.07;;;2.75;;
18685;SDS011;9473;52.342;13.110;2023-02-20T03:18:54;6.85;;;2.55;;
18685;SDS011;9473;52.342;13.110;2023-02-20T03:21:24;10.70;;;3.85;;
18685;SDS011;9473;52.342;13.110;2023-02-20T03:23:53;6.85;;;3.08;;
18685;SDS011;9473;52.342;13.110;2023-02-20T03:26:21;7.72;;;3.15;;
18685;SDS011;9473;52.342;13.110;2023-02-20T03:28:53;6.70;;;3.08;;
18685;SDS011;9473;52.342;13.110;2023-02-20T03:31:23;8.57;;;3.50;;
18685;SDS011;9473;52.342;13.110;2023-02-20T03:33:55;7.68;;;3.58;;
18685;SDS011;9473;52.342;13.110;2023-02-20T03:36:43;7.78;;;2.97;;
18685;SDS011;9473;52.342;13.110;2023-02-20T03:39:31;8.07;;;3.28;;
18685;SDS011;9473;52.342;13.110;2023-02-20T03:42:18;5.70;;;3.22;;
18685;SDS011;9473;52.342;13.110;2023-02-20T03:45:04;8.75;;;3.78;;
18685;SDS011;9473;52.342;13.110;2023-02-20T03:47:31;7.47;;;3.72;;
18685;SDS011;9473;52.342;13.110;2023-02-20T03:49:59;8.85;;;3.17;;
18685;SDS011;9473;52.342;13.110;2023-02-20T03:52:27;7.53;;;3.33;;
18685;SDS011;9473;52.342;13.110;2023-02-20T03:54:55;6.85;;;3.05;;
18685;SDS011;9473;52.342;13.110;2023-02-20T03:57:23;8.15;;;3.58;;
18685;SDS011;9473;52.342;13.110;2023-02-20T03:59:52;9.45;;;3.55;;
18685;SDS011;9473;52.342;13.110;2023-02-20T04:02:21;9.73;;;3.55;;
18685;SDS011;9473;52.342;13.110;2023-02-20T04:04:49;7.22;;;3.20;;
18685;SDS011;9473;52.342;13.110;2023-02-20T04:07:18;10.23;;;4.10;;
18685;SDS011;9473;52.342;13.110;2023-02-20T04:09:46;8.23;;;3.85;;
18685;SDS011;9473;52.342;13.110;2023-02-20T04:12:16;9.43;;;3.92;;
18685;SDS011;9473;52.342;13.110;2023-02-20T04:14:43;9.57;;;4.07;;
18685;SDS011;9473;52.342;13.110;2023-02-20T04:17:12;8.52;;;3.80;;
18685;SDS011;9473;52.342;13.110;2023-02-20T04:19:40;8.68;;;3.53;;
18685;SDS011;9473;52.342;13.110;2023-02-20T04:22:08;8.38;;;4.00;;
18685;SDS011;9473;52.342;13.110;2023-02-20T04:24:39;8.55;;;3.92;;
18685;SDS011;9473;52.342;13.110;2023-02-20T04:27:08;11.00;;;4.13;;
18685;SDS011;9473;52.342;13.110;2023-02-20T04:29:37;8.48;;;3.92;;
18685;SDS011;9473;52.342;13.110;2023-02-20T04:32:04;10.38;;;3.78;;
18685;SDS011;9473;52.342;13.110;2023-02-20T04:34:31;9.13;;;4.45;;
18685;SDS011;9473;52.342;13.110;2023-02-20T04:37:02;10.90;;;4.40;;
18685;SDS011;9473;52.342;13.110;2023-02-20T04:39:30;9.05;;;4.13;;
18685;SDS011;9473;52.342;13.110;2023-02-20T04:41:57;7.45;;;3.67;;
18685;SDS011;9473;52.342;13.110;2023-02-20T04:44:24;9.50;;;4.63;;
18685;SDS011;9473;52.342;13.110;2023-02-20T04:46:59;9.05;;;4.18;;
18685;SDS011;9473;52.342;13.110;2023-02-20T04:49:26;9.40;;;4.72;;
18685;SDS011;9473;52.342;13.110;2023-02-20T04:51:53;8.23;;;4.47;;
18685;SDS011;9473;52.342;13.110;2023-02-20T04:54:21;8.90;;;4.25;;
18685;SDS011;9473;52.342;13.110;2023-02-20T04:56:48;9.68;;;4.32;;
18685;SDS011;9473;52.342;13.110;2023-02-20T04:59:15;8.55;;;4.45;;
18685;SDS011;9473;52.342;13.110;2023-02-20T05:01:42;11.20;;;4.20;;
18685;SDS011;9473;52.342;13.110;2023-02-20T05:04:13;7.72;;;4.25;;
18685;SDS011;9473;52.342;13.110;2023-02-20T05:06:40;9.63;;;4.30;;
18685;SDS011;9473;52.342;13.110;2023-02-20T05:09:07;8.55;;;4.20;;
18685;SDS011;9473;52.342;13.110;2023-02-20T05:11:35;9.98;;;4.47;;
18685;SDS011;9473;52.342;13.110;2023-02-20T05:14:02;10.20;;;4.35;;
18685;SDS011;9473;52.342;13.110;2023-02-20T05:16:28;9.23;;;4.05;;
18685;SDS011;9473;52.342;13.110;2023-02-20T05:18:55;11.80;;;4.85;;
18685;SDS011;9473;52.342;13.110;2023-02-20T05:21:25;8.93;;;4.15;;
18685;SDS011;9473;52.342;13.110;2023-02-20T05:24:10;11.70;;;4.95;;
18685;SDS011;9473;52.342;13.110;2023-02-20T05:26:37;8.15;;;4.10;;
18685;SDS011;9473;52.342;13.110;2023-02-20T05:29:04;9.90;;;4.88;;
18685;SDS011;9473;52.342;13.110;2023-02-20T05:31:33;10.82;;;4.82;;
18685;SDS011;9473;52.342;13.110;2023-02-20T05:34:00;11.00;;;5.05;;
18685;SDS011;9473;52.342;13.110;2023-02-20T05:36:28;9.70;;;4.88;;
18685;SDS011;9473;52.342;13.110;2023-02-20T05:38:55;8.93;;;4.45;;
18685;SDS011;9473;52.342;13.110;2023-02-20T05:41:22;9.52;;;4.75;;
18685;SDS011;9473;52.342;13.110;2023-02-20T05:43:49;9.35;;;4.45;;
18685;SDS011;9473;52.342;13.110;2023-02-20T05:46:18;9.43;;;4.88;;
18685;SDS011;9473;52.342;13.110;2023-02-20T05:48:47;11.85;;;4.97;;
18685;SDS011;9473;52.342;13.110;2023-02-20T05:51:18;10.68;;;4.85;;
18685;SDS011;9473;52.342;13.110;2023-02-20T05:53:46;11.13;;;4.80;;
18685;SDS011;9473;52.342;13.110;2023-02-20T05:56:13;11.15;;;5.03;;
18685;SDS011;9473;52.342;13.110;2023-02-20T05:58:40;11.43;;;4.60;;
18685;SDS011;9473;52.342;13.110;2023-02-20T06:01:08;9.93;;;4.82;;
18685;SDS011;9473;52.342;13.110;2023-02-20T06:03:34;12.00;;;4.88;;
18685;SDS011;9473;52.342;13.110;2023-02-20T06:06:01;9.65;;;4.85;;
18685;SDS011;9473;52.342;13.110;2023-02-20T06:08:28;11.02;;;5.32;;
18685;SDS011;9473;52.342;13.110;2023-02-20T06:10:57;12.77;;;5.35;;
18685;SDS011;9473;52.342;13.110;2023-02-20T06:13:23;11.00;;;5.05;;
18685;SDS011;9473;52.342;13.110;2023-02-20T06:15:50;14.15;;;5.53;;
18685;SDS011;9473;52.342;13.110;2023-02-20T06:18:17;10.90;;;5.38;;
18685;SDS011;9473;52.342;13.110;2023-02-20T06:20:44;11.90;;;5.65;;
18685;SDS011;9473;52.342;13.110;2023-02-20T06:23:11;10.27;;;5.35;;
18685;SDS011;9473;52.342;13.110;2023-02-20T06:25:38;14.05;;;5.50;;
18685;SDS011;9473;52.342;13.110;2023-02-20T06:28:06;12.77;;;5.28;;
18685;SDS011;9473;52.342;13.110;2023-02-20T06:30:33;11.70;;;5.65;;
18685;SDS011;9473;52.342;13.110;2023-02-20T06:33:00;11.25;;;5.43;;
18685;SDS011;9473;52.342;13.110;2023-02-20T06:35:27;12.18;;;5.85;;
18685;SDS011;9473;52.342;13.110;2023-02-20T06:37:54;12.07;;;5.88;;
18685;SDS011;9473;52.342;13.110;2023-02-20T06:40:21;14.45;;;6.15;;
18685;SDS011;9473;52.342;13.110;2023-02-20T06:42:48;12.20;;;5.80;;
18685;SDS011;9473;52.342;13.110;2023-02-20T06:45:16;11.93;;;5.38;;
18685;SDS011;9473;52.342;13.110;2023-02-20T06:47:43;11.88;;;6.05;;
18685;SDS011;9473;52.342;13.110;2023-02-20T06:50:10;13.02;;;6.57;;
18685;SDS011;9473;52.342;13.110;2023-02-20T06:52:37;13.77;;;6.10;;
18685;SDS011;9473;52.342;13.110;2023-02-20T06:55:04;12.88;;;6.15;;
18685;SDS011;9473;52.342;13.110;2023-02-20T06:57:31;12.45;;;6.45;;
18685;SDS011;9473;52.342;13.110;2023-02-20T06:59:58;11.60;;;5.38;;
18685;SDS011;9473;52.342;13.110;2023-02-20T07:02:26;12.85;;;6.25;;
18685;SDS011;9473;52.342;13.110;2023-02-20T07:04:53;11.02;;;5.78;;
18685;SDS011;9473;52.342;13.110;2023-02-20T07:07:20;11.00;;;5.90;;
18685;SDS011;9473;52.342;13.110;2023-02-20T07:09:47;11.93;;;6.03;;
18685;SDS011;9473;52.342;13.110;2023-02-20T07:12:14;12.18;;;5.63;;
18685;SDS011;9473;52.342;13.110;2023-02-20T07:14:41;12.77;;;5.35;;
18685;SDS011;9473;52.342;13.110;2023-02-20T07:17:08;10.70;;;5.10;;
18685;SDS011;9473;52.342;13.110;2023-02-20T07:19:36;10.95;;;5.07;;
18685;SDS011;9473;52.342;13.110;2023-02-20T07:22:03;10.68;;;5.30;;
18685;SDS011;9473;52.342;13.110;2023-02-20T07:24:30;11.00;;;5.00;;
18685;SDS011;9473;52.342;13.110;2023-02-20T07:26:56;9.98;;;5.05;;
18685;SDS011;9473;52.342;13.110;2023-02-20T07:29:23;9.95;;;4.63;;
18685;SDS011;9473;52.342;13.110;2023-02-20T07:31:50;9.50;;;4.88;;
18685;SDS011;9473;52.342;13.110;2023-02-20T07:34:17;11.38;;;4.68;;
18685;SDS011;9473;52.342;13.110;2023-02-20T07:36:45;8.05;;;4.40;;
18685;SDS011;9473;52.342;13.110;2023-02-20T07:39:12;11.55;;;5.10;;
18685;SDS011;9473;52.342;13.110;2023-02-20T07:41:39;8.93;;;4.95;;
18685;SDS011;9473;52.342;13.110;2023-02-20T07:44:06;10.80;;;5.07;;
18685;SDS011;9473;52.342;13.110;2023-02-20T07:46:33;9.77;;;4.60;;
18685;SDS011;9473;52.342;13.110;2023-02-20T07:49:00;8.90;;;4.50;;
18685;SDS011;9473;52.342;13.110;2023-02-20T07:51:27;7.50;;;4.35;;
18685;SDS011;9473;52.342;13.110;2023-02-20T07:53:55;10.07;;;4.28;;
18685;SDS011;9473;52.342;13.110;2023-02-20T07:56:22;8.88;;;4.47;;
18685;SDS011;9473;52.342;13.110;2023-02-20T07:58:49;8.02;;;4.22;;
18685;SDS011;9473;52.342;13.110;2023-02-20T08:01:17;10.48;;;4.60;;
18685;SDS011;9473;52.342;13.110;2023-02-20T08:03:44;8.82;;;4.47;;
18685;SDS011;9473;52.342;13.110;2023-02-20T08:06:11;10.27;;;4.97;;
18685;SDS011;9473;52.342;13.110;2023-02-20T08:08:38;8.77;;;4.43;;
18685;SDS011;9473;52.342;13.110;2023-02-20T08:11:06;9.60;;;4.32;;
18685;SDS011;9473;52.342;13.110;2023-02-20T08:13:33;8.35;;;4.70;;
18685;SDS011;9473;52.342;13.110;2023-02-20T08:16:00;8.52;;;4.38;;
18685;SDS011;9473;52.342;13.110;2023-02-20T08:18:27;9.23;;;4.35;;
18685;SDS011;9473;52.342;13.110;2023-02-20T08:20:54;9.95;;;4.50;;
18685;SDS011;9473;52.342;13.110;2023-02-20T08:23:21;8.63;;;4.22;;
18685;SDS011;9473;52.342;13.110;2023-02-20T08:25:49;8.38;;;4.10;;
18685;SDS011;9473;52.342;13.110;2023-02-20T08:28:18;7.10;;;3.85;;
18685;SDS011;9473;52.342;13.110;2023-02-20T08:30:45;9.90;;;4.40;;
18685;SDS011;9473;52.342;13.110;2023-02-20T08:33:12;10.00;;;4.63;;
18685;SDS011;9473;52.342;13.110;2023-02-20T08:35:39;10.05;;;4.22;;
18685;SDS011;9473;52.342;13.110;2023-02-20T08:38:07;9.55;;;4.32;;
18685;SDS011;9473;52.342;13.110;2023-02-20T08:40:47;7.53;;;3.85;;
18685;SDS011;9473;52.342;13.110;2023-02-20T08:43:14;7.65;;;3.60;;
18685;SDS011;9473;52.342;13.110;2023-02-20T08:45:42;8.27;;;4.00;;
18685;SDS011;9473;52.342;13.110;2023-02-20T08:48:09;7.00;;;3.45;;
18685;SDS011;9473;52.342;13.110;2023-02-20T08:50:36;8.77;;;3.80;;
18685;SDS011;9473;52.342;13.110;2023-02-20T08:53:03;8.02;;;3.90;;
18685;SDS011;9473;52.342;13.110;2023-02-20T08:55:29;8.65;;;4.28;;
18685;SDS011;9473;52.342;13.110;2023-02-20T08:57:56;8.05;;;3.42;;
18685;SDS011;9473;52.342;13.110;2023-02-20T09:00:23;11.20;;;3.90;;
18685;SDS011;9473;52.342;13.110;2023-02-20T09:02:51;7.05;;;3.75;;
18685;SDS011;9473;52.342;13.110;2023-02-20T09:05:18;6.30;;;3.35;;
18685;SDS011;9473;52.342;13.110;2023-02-20T09:07:45;7.00;;;3.63;;
18685;SDS011;9473;52.342;13.110;2023-02-20T09:10:12;6.78;;;3.20;;
18685;SDS011;9473;52.342;13.110;2023-02-20T09:12:39;7.07;;;3.40;;
18685;SDS011;9473;52.342;13.110;2023-02-20T09:15:07;7.25;;;3.22;;
18685;SDS011;9473;52.342;13.110;2023-02-20T09:17:34;7.70;;;3.60;;
18685;SDS011;9473;52.342;13.110;2023-02-20T09:20:02;7.20;;;3.25;;
18685;SDS011;9473;52.342;13.110;2023-02-20T09:22:29;7.20;;;3.15;;
18685;SDS011;9473;52.342;13.110;2023-02-20T09:24:56;7.82;;;3.17;;
18685;SDS011;9473;52.342;13.110;2023-02-20T09:27:24;6.10;;;3.10;;
18685;SDS011;9473;52.342;13.110;2023-02-20T09:29:50;5.68;;;2.80;;
18685;SDS011;9473;52.342;13.110;2023-02-20T09:32:17;5.05;;;2.80;;
18685;SDS011;9473;52.342;13.110;2023-02-20T09:34:45;7.97;;;3.10;;
18685;SDS011;9473;52.342;13.110;2023-02-20T09:37:13;7.90;;;2.97;;
18685;SDS011;9473;52.342;13.110;2023-02-20T09:39:40;7.32;;;3.22;;
18685;SDS011;9473;52.342;13.110;2023-02-20T09:42:11;7.03;;;3.42;;
18685;SDS011;9473;52.342;13.110;2023-02-20T09:44:42;5.43;;;2.60;;
18685;SDS011;9473;52.342;13.110;2023-02-20T09:47:17;6.60;;;2.67;;
18685;SDS011;9473;52.342;13.110;2023-02-20T09:49:45;7.07;;;2.47;;
18685;SDS011;9473;52.342;13.110;2023-02-20T09:52:13;6.97;;;2.80;;
18685;SDS011;9473;52.342;13.110;2023-02-20T09:54:42;5.63;;;2.78;;
18685;SDS011;9473;52.342;13.110;2023-02-20T09:57:12;5.47;;;2.65;;
18685;SDS011;9473;52.342;13.110;2023-02-20T09:59:40;7.85;;;2.53;;
18685;SDS011;9473;52.342;13.110;2023-02-20T10:02:11;6.55;;;2.35;;
18685;SDS011;9473;52.342;13.110;2023-02-20T10:04:41;5.35;;;2.50;;
18685;SDS011;9473;52.342;13.110;2023-02-20T10:07:11;5.55;;;2.10;;
18685;SDS011;9473;52.342;13.110;2023-02-20T10:09:42;5.85;;;2.50;;
18685;SDS011;9473;52.342;13.110;2023-02-20T10:12:11;6.80;;;2.47;;
18685;SDS011;9473;52.342;13.110;2023-02-20T10:14:52;5.88;;;2.45;;
18685;SDS011;9473;52.342;13.110;2023-02-20T10:17:25;5.38;;;2.30;;
18685;SDS011;9473;52.342;13.110;2023-02-20T10:19:55;4.88;;;2.30;;
18685;SDS011;9473;52.342;13.110;2023-02-20T10:22:25;7.38;;;2.53;;
18685;SDS011;9473;52.342;13.110;2023-02-20T10:25:01;5.30;;;2.60;;
18685;SDS011;9473;52.342;13.110;2023-02-20T10:27:30;4.22;;;2.20;;
18685;SDS011;9473;52.342;13.110;2023-02-20T10:30:00;7.05;;;2.63;;
18685;SDS011;9473;52.342;13.110;2023-02-20T10:32:30;5.90;;;2.63;;
18685;SDS011;9473;52.342;13.110;2023-02-20T10:35:00;6.65;;;2.70;;
18685;SDS011;9473;52.342;13.110;2023-02-20T10:37:31;3.78;;;2.17;;
18685;SDS011;9473;52.342;13.110;2023-02-20T10:40:01;6.03;;;2.72;;
18685;SDS011;9473;52.342;13.110;2023-02-20T10:42:31;5.68;;;2.15;;
18685;SDS011;9473;52.342;13.110;2023-02-20T10:45:00;5.07;;;2.20;;
18685;SDS011;9473;52.342;13.110;2023-02-20T10:47:29;5.00;;;2.30;;
18685;SDS011;9473;52.342;13.110;2023-02-20T10:49:58;5.50;;;2.58;;
18685;SDS011;9473;52.342;13.110;2023-02-20T10:52:28;4.45;;;2.25;;
18685;SDS011;9473;52.342;13.110;2023-02-20T10:54:58;5.38;;;2.47;;
18685;SDS011;9473;52.342;13.110;2023-02-20T10:57:32;5.50;;;2.33;;
18685;SDS011;9473;52.342;13.110;2023-02-20T11:00:00;5.43;;;2.63;;
18685;SDS011;9473;52.342;13.110;2023-02-20T11:02:29;4.05;;;2.55;;
18685;SDS011;9473;52.342;13.110;2023-02-20T11:04:59;5.35;;;2.47;;
18685;SDS011;9473;52.342;13.110;2023-02-20T11:07:27;5.43;;;2.63;;
18685;SDS011;9473;52.342;13.110;2023-02-20T11:09:55;6.47;;;2.47;;
18685;SDS011;9473;52.342;13.110;2023-02-20T11:12:24;4.57;;;2.72;;
18685;SDS011;9473;52.342;13.110;2023-02-20T11:14:54;8.40;;;2.58;;
18685;SDS011;9473;52.342;13.110;2023-02-20T11:17:22;6.57;;;2.80;;
18685;SDS011;9473;52.342;13.110;2023-02-20T11:19:51;6.68;;;2.40;;
18685;SDS011;9473;52.342;13.110;2023-02-20T11:25:12;5.30;;;2.88;;
18685;SDS011;9473;52.342;13.110;2023-02-20T11:27:39;5.95;;;3.08;;
18685;SDS011;9473;52.342;13.110;2023-02-20T11:30:15;6.93;;;2.78;;
18685;SDS011;9473;52.342;13.110;2023-02-20T11:32:44;6.22;;;2.75;;
18685;SDS011;9473;52.342;13.110;2023-02-20T11:35:22;6.47;;;2.70;;
18685;SDS011;9473;52.342;13.110;2023-02-20T11:40:35;5.90;;;3.03;;
18685;SDS011;9473;52.342;13.110;2023-02-20T11:43:08;5.28;;;2.80;;
18685;SDS011;9473;52.342;13.110;2023-02-20T11:45:37;6.72;;;3.35;;
18685;SDS011;9473;52.342;13.110;2023-02-20T11:48:05;8.10;;;3.30;;
18685;SDS011;9473;52.342;13.110;2023-02-20T11:50:37;9.05;;;3.30;;
18685;SDS011;9473;52.342;13.110;2023-02-20T11:53:04;6.95;;;3.20;;
18685;SDS011;9473;52.342;13.110;2023-02-20T11:55:32;9.45;;;4.20;;
18685;SDS011;9473;52.342;13.110;2023-02-20T11:57:59;5.65;;;2.92;;
18685;SDS011;9473;52.342;13.110;2023-02-20T12:00:27;8.40;;;3.92;;
18685;SDS011;9473;52.342;13.110;2023-02-20T12:02:57;8.90;;;4.45;;
18685;SDS011;9473;52.342;13.110;2023-02-20T12:05:36;8.85;;;4.75;;
18685;SDS011;9473;52.342;13.110;2023-02-20T12:08:17;6.80;;;3.60;;
18685;SDS011;9473;52.342;13.110;2023-02-20T12:10:46;5.68;;;3.38;;
18685;SDS011;9473;52.342;13.110;2023-02-20T12:13:15;7.13;;;3.58;;
18685;SDS011;9473;52.342;13.110;2023-02-20T12:15:42;7.75;;;3.50;;
18685;SDS011;9473;52.342;13.110;2023-02-20T12:18:19;10.20;;;3.55;;
18685;SDS011;9473;52.342;13.110;2023-02-20T12:20:52;6.22;;;3.60;;
18685;SDS011;9473;52.342;13.110;2023-02-20T12:23:22;7.13;;;3.28;;
18685;SDS011;9473;52.342;13.110;2023-02-20T12:25:55;8.48;;;3.40;;
18685;SDS011;9473;52.342;13.110;2023-02-20T12:28:24;7.97;;;3.60;;
18685;SDS011;9473;52.342;13.110;2023-02-20T12:30:57;7.82;;;3.20;;
18685;SDS011;9473;52.342;13.110;2023-02-20T12:33:36;8.43;;;3.63;;
18685;SDS011;9473;52.342;13.110;2023-02-20T12:36:16;7.00;;;3.63;;
18685;SDS011;9473;52.342;13.110;2023-02-20T12:38:46;7.45;;;4.18;;
18685;SDS011;9473;52.342;13.110;2023-02-20T12:41:21;10.30;;;4.90;;
18685;SDS011;9473;52.342;13.110;2023-02-20T12:43:52;10.98;;;4.70;;
18685;SDS011;9473;52.342;13.110;2023-02-20T12:46:27;8.52;;;4.07;;
18685;SDS011;9473;52.342;13.110;2023-02-20T12:49:02;8.85;;;4.60;;
18685;SDS011;9473;52.342;13.110;2023-02-20T12:51:36;8.57;;;4.30;;
18685;SDS011;9473;52.342;13.110;2023-02-20T12:54:06;9.15;;;4.28;;
18685;SDS011;9473;52.342;13.110;2023-02-20T12:56:42;9.13;;;4.35;;
18685;SDS011;9473;52.342;13.110;2023-02-20T12:59:15;10.90;;;4.90;;
18685;SDS011;9473;52.342;13.110;2023-02-20T13:01:44;11.07;;;5.43;;
18685;SDS011;9473;52.342;13.110;2023-02-20T13:04:18;10.90;;;5.15;;
18685;SDS011;9473;52.342;13.110;2023-02-20T13:06:51;11.30;;;5.32;;
18685;SDS011;9473;52.342;13.110;2023-02-20T13:09:21;15.20;;;6.22;;
18685;SDS011;9473;52.342;13.110;2023-02-20T13:11:50;12.70;;;5.85;;
18685;SDS011;9473;52.342;13.110;2023-02-20T13:14:32;12.70;;;5.10;;
18685;SDS011;9473;52.342;13.110;2023-02-20T13:17:02;14.00;;;6.10;;
18685;SDS011;9473;52.342;13.110;2023-02-20T13:19:36;11.90;;;5.78;;
18685;SDS011;9473;52.342;13.110;2023-02-20T13:22:05;10.43;;;5.47;;
18685;SDS011;9473;52.342;13.110;2023-02-20T13:24:32;10.80;;;5.68;;
18685;SDS011;9473;52.342;13.110;2023-02-20T13:27:00;13.82;;;5.82;;
18685;SDS011;9473;52.342;13.110;2023-02-20T13:29:31;12.63;;;6.80;;
18685;SDS011;9473;52.342;13.110;2023-02-20T13:31:58;12.52;;;5.95;;
18685;SDS011;9473;52.342;13.110;2023-02-20T13:34:30;12.32;;;6.18;;
18685;SDS011;9473;52.342;13.110;2023-02-20T13:36:59;11.77;;;5.82;;
18685;SDS011;9473;52.342;13.110;2023-02-20T13:44:56;17.40;;;7.03;;
18685;SDS011;9473;52.342;13.110;2023-02-20T13:47:31;21.00;;;7.32;;
18685;SDS011;9473;52.342;13.110;2023-02-20T13:50:01;17.38;;;7.40;;
18685;SDS011;9473;52.342;13.110;2023-02-20T13:52:34;14.13;;;7.00;;
18685;SDS011;9473;52.342;13.110;2023-02-20T13:55:03;16.00;;;6.90;;
18685;SDS011;9473;52.342;13.110;2023-02-20T13:57:41;14.57;;;6.60;;
18685;SDS011;9473;52.342;13.110;2023-02-20T14:00:13;16.08;;;7.45;;
18685;SDS011;9473;52.342;13.110;2023-02-20T14:02:44;13.98;;;6.20;;
18685;SDS011;9473;52.342;13.110;2023-02-20T14:05:16;15.48;;;6.85;;
18685;SDS011;9473;52.342;13.110;2023-02-20T14:07:44;13.43;;;6.85;;
18685;SDS011;9473;52.342;13.110;2023-02-20T14:10:16;14.35;;;6.88;;
18685;SDS011;9473;52.342;13.110;2023-02-20T14:12:44;14.95;;;6.70;;
18685;SDS011;9473;52.342;13.110;2023-02-20T14:15:11;16.23;;;6.93;;
18685;SDS011;9473;52.342;13.110;2023-02-20T14:17:40;14.13;;;6.72;;
18685;SDS011;9473;52.342;13.110;2023-02-20T14:20:14;15.15;;;6.88;;
18685;SDS011;9473;52.342;13.110;2023-02-20T14:22:45;12.73;;;6.10;;
18685;SDS011;9473;52.342;13.110;2023-02-20T14:25:20;14.25;;;6.63;;
18685;SDS011;9473;52.342;13.110;2023-02-20T14:27:48;9.82;;;5.57;;
18685;SDS011;9473;52.342;13.110;2023-02-20T14:30:15;10.68;;;6.18;;
18685;SDS011;9473;52.342;13.110;2023-02-20T14:32:42;12.20;;;5.80;;
18685;SDS011;9473;52.342;13.110;2023-02-20T14:35:12;11.38;;;5.97;;
18685;SDS011;9473;52.342;13.110;2023-02-20T14:37:49;13.80;;;6.05;;
18685;SDS011;9473;52.342;13.110;2023-02-20T14:40:17;11.77;;;5.93;;
18685;SDS011;9473;52.342;13.110;2023-02-20T14:42:47;10.90;;;6.05;;
18685;SDS011;9473;52.342;13.110;2023-02-20T14:45:15;11.95;;;5.65;;
18685;SDS011;9473;52.342;13.110;2023-02-20T14:47:49;11.00;;;6.00;;
18685;SDS011;9473;52.342;13.110;2023-02-20T14:50:17;10.40;;;5.40;;
18685;SDS011;9473;52.342;13.110;2023-02-20T14:52:45;13.60;;;6.28;;
18685;SDS011;9473;52.342;13.110;2023-02-20T14:55:16;14.27;;;5.78;;
18685;SDS011;9473;52.342;13.110;2023-02-20T14:57:43;11.32;;;5.90;;
18685;SDS011;9473;52.342;13.110;2023-02-20T15:00:20;13.25;;;5.80;;
18685;SDS011;9473;52.342;13.110;2023-02-20T15:02:48;14.73;;;5.78;;
18685;SDS011;9473;52.342;13.110;2023-02-20T15:05:17;11.43;;;5.65;;
18685;SDS011;9473;52.342;13.110;2023-02-20T15:07:45;11.38;;;5.53;;
18685;SDS011;9473;52.342;13.110;2023-02-20T15:12:56;11.00;;;5.25;;
18685;SDS011;9473;52.342;13.110;2023-02-20T15:15:23;11.70;;;5.88;;
18685;SDS011;9473;52.342;13.110;2023-02-20T15:18:00;11.35;;;5.60;;
18685;SDS011;9473;52.342;13.110;2023-02-20T15:20:33;10.52;;;5.60;;